Terminal Aerodrome Forecast
Issued by NWS

Home | Current Version | Previous Version | Text Only | Print | Product List | Glossary On
Versions: 1 2 3 4 5 6 7 8 9 10 11 12 13
662
FTUS43 KFGF 271139
TAFBJI
TAF
KBJI 271139Z 2712/2812 22003KT P6SM SCT200
     FM272300 18010KT P6SM SCT110
     FM280600 15007KT P6SM SCT090 WS020/19035KT
     FM280800 15006KT P6SM VCSH BKN080=

USA.gov is the U.S. government's official web portal to all federal, state and local government web resources and services.